N929W KTPA-KJVY
Flight info
| Callsign | N929W |
|---|---|
| Flight time | 1h 41m |
| Altitude | 43000 |
| Route | ENDED2 LACEN BRUTS Q118 JAMIZ WALET TAZZA GLAZR LEDDL1 |
| Aircraft | C700/M-SBDGHM1RWXY/LB2 |
Departure
| Time | 2026-04-17 13:10 |
|---|---|
| Airport | Tampa International Airport (KTPA) |
Arrival
| Time | 2026-04-17 14:52 |
|---|---|
| Airport | Clark Regional Airport (KJVY) |
| Time | Latitude | Longitude | Altitude | Speed | Heading |
|---|---|---|---|---|---|
| 2026-04-17 13:05 | 27.96697 | -82.52637 | 35 ft | 0 kts | 89° |
| 2026-04-17 13:08 | 27.96690 | -82.52631 | 35 ft | 4 kts | 161° |
| 2026-04-17 13:09 | 27.96640 | -82.52683 | 36 ft | 14 kts | 227° |
| 2026-04-17 13:09 | 27.96577 | -82.52777 | 36 ft | 16 kts | 223° |
| 2026-04-17 13:09 | 27.96468 | -82.52793 | 36 ft | 16 kts | 200° |
| 2026-04-17 13:09 | 27.96460 | -82.52895 | 37 ft | 16 kts | 336° |
| 2026-04-17 13:10 | 27.96651 | -82.52890 | 35 ft | 57 kts | 1° |
| 2026-04-17 13:10 | 27.97359 | -82.52862 | 36 ft | 144 kts | 1° |
| 2026-04-17 13:10 | 27.98485 | -82.52877 | 797 ft | 161 kts | 355° |
| 2026-04-17 13:10 | 27.99716 | -82.53026 | 1624 ft | 208 kts | 354° |
| 2026-04-17 13:11 | 28.01228 | -82.53219 | 2872 ft | 218 kts | 354° |
| 2026-04-17 13:11 | 28.02796 | -82.53420 | 4093 ft | 239 kts | 355° |
| 2026-04-17 13:11 | 28.04542 | -82.53639 | 5157 ft | 263 kts | 355° |
| 2026-04-17 13:11 | 28.06370 | -82.53865 | 6669 ft | 267 kts | 355° |
| 2026-04-17 13:12 | 28.08246 | -82.54096 | 8005 ft | 275 kts | 354° |
| 2026-04-17 13:12 | 28.12128 | -82.54580 | 10668 ft | 287 kts | 352° |
| 2026-04-17 13:12 | 28.14065 | -82.55405 | 11455 ft | 314 kts | 327° |
| 2026-04-17 13:13 | 28.15823 | -82.57050 | 12192 ft | 342 kts | 317° |
| 2026-04-17 13:13 | 28.17647 | -82.58943 | 12871 ft | 369 kts | 318° |
| 2026-04-17 13:13 | 28.19716 | -82.60799 | 13804 ft | 384 kts | 323° |
| 2026-04-17 13:13 | 28.21938 | -82.62502 | 15036 ft | 388 kts | 324° |
| 2026-04-17 13:14 | 28.24164 | -82.64290 | 16132 ft | 395 kts | 322° |
| 2026-04-17 13:14 | 28.26363 | -82.66196 | 17239 ft | 401 kts | 321° |
| 2026-04-17 13:14 | 28.28609 | -82.68121 | 18319 ft | 408 kts | 322° |
| 2026-04-17 13:14 | 28.30924 | -82.70029 | 19277 ft | 413 kts | 322° |
| 2026-04-17 13:15 | 28.33255 | -82.71952 | 20268 ft | 417 kts | 322° |
| 2026-04-17 13:15 | 28.35595 | -82.73923 | 21230 ft | 421 kts | 322° |
| 2026-04-17 13:15 | 28.37975 | -82.75892 | 22164 ft | 426 kts | 325° |
| 2026-04-17 13:15 | 28.40594 | -82.77506 | 23080 ft | 432 kts | 334° |
| 2026-04-17 13:16 | 28.43438 | -82.78673 | 23921 ft | 438 kts | 342° |
| 2026-04-17 13:16 | 28.46453 | -82.79347 | 24669 ft | 445 kts | 349° |
| 2026-04-17 13:16 | 28.49532 | -82.79834 | 25433 ft | 449 kts | 349° |
| 2026-04-17 13:16 | 28.52637 | -82.80343 | 26214 ft | 453 kts | 348° |
| 2026-04-17 13:17 | 28.55764 | -82.80861 | 26960 ft | 457 kts | 348° |
| 2026-04-17 13:17 | 28.58927 | -82.81381 | 27662 ft | 461 kts | 348° |
| 2026-04-17 13:17 | 28.62103 | -82.81947 | 28349 ft | 464 kts | 347° |
| 2026-04-17 13:17 | 28.65302 | -82.82556 | 29031 ft | 468 kts | 346° |
| 2026-04-17 13:18 | 28.68534 | -82.83148 | 29729 ft | 472 kts | 347° |
| 2026-04-17 13:18 | 28.71794 | -82.83719 | 30402 ft | 477 kts | 347° |
| 2026-04-17 13:18 | 28.75085 | -82.84307 | 30963 ft | 480 kts | 346° |
| 2026-04-17 13:18 | 28.78398 | -82.84914 | 31477 ft | 484 kts | 346° |
| 2026-04-17 13:19 | 28.81733 | -82.85522 | 31744 ft | 486 kts | 346° |
| 2026-04-17 13:19 | 28.85038 | -82.86113 | 31735 ft | 476 kts | 346° |
| 2026-04-17 13:19 | 28.91619 | -82.87310 | 31731 ft | 481 kts | 346° |
| 2026-04-17 13:20 | 28.98246 | -82.88509 | 31734 ft | 483 kts | 346° |
| 2026-04-17 13:20 | 29.04841 | -82.89707 | 31733 ft | 482 kts | 346° |
| 2026-04-17 13:21 | 29.11436 | -82.90907 | 31747 ft | 479 kts | 346° |
| 2026-04-17 13:21 | 29.18022 | -82.92108 | 31753 ft | 480 kts | 346° |
| 2026-04-17 13:22 | 29.24622 | -82.93311 | 31754 ft | 482 kts | 346° |
| 2026-04-17 13:22 | 29.27885 | -82.93903 | 32649 ft | 463 kts | 346° |
| 2026-04-17 13:22 | 29.31030 | -82.94472 | 33761 ft | 455 kts | 346° |
| 2026-04-17 13:23 | 29.34151 | -82.95050 | 34446 ft | 454 kts | 346° |
| 2026-04-17 13:23 | 29.37259 | -82.95622 | 35275 ft | 448 kts | 345° |
| 2026-04-17 13:23 | 29.40309 | -82.96175 | 36108 ft | 442 kts | 345° |
| 2026-04-17 13:23 | 29.43336 | -82.96728 | 36778 ft | 439 kts | 345° |
| 2026-04-17 13:24 | 29.46338 | -82.97281 | 37411 ft | 435 kts | 344° |
| 2026-04-17 13:24 | 29.49315 | -82.97839 | 38013 ft | 431 kts | 342° |
| 2026-04-17 13:24 | 29.52188 | -82.98660 | 38560 ft | 422 kts | 336° |
| 2026-04-17 13:24 | 29.54919 | -82.99817 | 39034 ft | 415 kts | 331° |
| 2026-04-17 13:25 | 29.57577 | -83.01098 | 39346 ft | 415 kts | 331° |
| 2026-04-17 13:25 | 29.60253 | -83.02365 | 39638 ft | 416 kts | 332° |
| 2026-04-17 13:25 | 29.62926 | -83.03629 | 39909 ft | 415 kts | 332° |
| 2026-04-17 13:25 | 29.65590 | -83.04902 | 40186 ft | 415 kts | 331° |
| 2026-04-17 13:26 | 29.68260 | -83.06181 | 40415 ft | 416 kts | 331° |
| 2026-04-17 13:26 | 29.70933 | -83.07455 | 40655 ft | 416 kts | 331° |
| 2026-04-17 13:26 | 29.73604 | -83.08728 | 40871 ft | 416 kts | 331° |
| 2026-04-17 13:26 | 29.76275 | -83.10005 | 41083 ft | 416 kts | 331° |
| 2026-04-17 13:27 | 29.78944 | -83.11282 | 41291 ft | 416 kts | 331° |
| 2026-04-17 13:27 | 29.81614 | -83.12559 | 41483 ft | 416 kts | 331° |
| 2026-04-17 13:27 | 29.84285 | -83.13837 | 41669 ft | 416 kts | 331° |
| 2026-04-17 13:27 | 29.86921 | -83.15099 | 41846 ft | 416 kts | 331° |
| 2026-04-17 13:28 | 29.89590 | -83.16379 | 42000 ft | 416 kts | 331° |
| 2026-04-17 13:28 | 29.92299 | -83.17678 | 42154 ft | 416 kts | 331° |
| 2026-04-17 13:28 | 29.94936 | -83.18942 | 42354 ft | 416 kts | 331° |
| 2026-04-17 13:28 | 29.97604 | -83.20222 | 42536 ft | 415 kts | 331° |
| 2026-04-17 13:29 | 30.00272 | -83.21505 | 42667 ft | 415 kts | 331° |
| 2026-04-17 13:29 | 30.02941 | -83.22788 | 42808 ft | 416 kts | 331° |
| 2026-04-17 13:29 | 30.05607 | -83.24070 | 42941 ft | 416 kts | 331° |
| 2026-04-17 13:29 | 30.08280 | -83.25356 | 43074 ft | 416 kts | 331° |
| 2026-04-17 13:30 | 30.13669 | -83.27953 | 43169 ft | 419 kts | 331° |
| 2026-04-17 13:30 | 30.19004 | -83.30521 | 43171 ft | 417 kts | 331° |
| 2026-04-17 13:31 | 30.24334 | -83.33095 | 43171 ft | 414 kts | 330° |
| 2026-04-17 13:31 | 30.29631 | -83.35653 | 43167 ft | 412 kts | 330° |
| 2026-04-17 13:32 | 30.34084 | -83.37806 | 43170 ft | 415 kts | 330° |
| 2026-04-17 13:32 | 30.39432 | -83.40393 | 43176 ft | 418 kts | 330° |
| 2026-04-17 13:33 | 30.44797 | -83.42990 | 43177 ft | 417 kts | 330° |
| 2026-04-17 13:33 | 30.50135 | -83.45579 | 43173 ft | 415 kts | 330° |
| 2026-04-17 13:34 | 30.55441 | -83.48155 | 43168 ft | 412 kts | 330° |
| 2026-04-17 13:34 | 30.60732 | -83.50729 | 43162 ft | 413 kts | 330° |
| 2026-04-17 13:35 | 30.66016 | -83.53300 | 43169 ft | 416 kts | 330° |
| 2026-04-17 13:35 | 30.71364 | -83.55906 | 43163 ft | 418 kts | 330° |
| 2026-04-17 13:36 | 30.76714 | -83.58515 | 43166 ft | 416 kts | 330° |
| 2026-04-17 13:36 | 30.82037 | -83.61115 | 43163 ft | 414 kts | 330° |
| 2026-04-17 13:37 | 30.87333 | -83.63705 | 43169 ft | 412 kts | 330° |
| 2026-04-17 13:37 | 30.92625 | -83.66298 | 43162 ft | 414 kts | 330° |
| 2026-04-17 13:38 | 30.97953 | -83.68909 | 43169 ft | 416 kts | 330° |
| 2026-04-17 13:38 | 31.03302 | -83.71535 | 43169 ft | 418 kts | 330° |
| 2026-04-17 13:39 | 31.08659 | -83.74166 | 43166 ft | 416 kts | 330° |
| 2026-04-17 13:39 | 31.13979 | -83.76784 | 43167 ft | 414 kts | 330° |
| 2026-04-17 13:40 | 31.19274 | -83.79392 | 43166 ft | 413 kts | 330° |
| 2026-04-17 13:40 | 31.24577 | -83.82010 | 43167 ft | 415 kts | 330° |
| 2026-04-17 13:41 | 31.29905 | -83.84640 | 43168 ft | 417 kts | 330° |
| 2026-04-17 13:41 | 31.35264 | -83.87290 | 43165 ft | 418 kts | 330° |
| 2026-04-17 13:42 | 31.40606 | -83.89933 | 43148 ft | 416 kts | 329° |
| 2026-04-17 13:42 | 31.45910 | -83.92562 | 43152 ft | 413 kts | 329° |
| 2026-04-17 13:43 | 31.51232 | -83.95150 | 43150 ft | 418 kts | 333° |
| 2026-04-17 13:43 | 31.56944 | -83.96761 | 43162 ft | 430 kts | 341° |
| 2026-04-17 13:44 | 31.62831 | -83.98073 | 43164 ft | 431 kts | 340° |
| 2026-04-17 13:44 | 31.68723 | -83.99380 | 43145 ft | 430 kts | 341° |
| 2026-04-17 13:45 | 31.74589 | -84.00684 | 43148 ft | 428 kts | 340° |
| 2026-04-17 13:45 | 31.80437 | -84.01988 | 43150 ft | 427 kts | 340° |
| 2026-04-17 13:46 | 31.86276 | -84.03290 | 43152 ft | 427 kts | 340° |
| 2026-04-17 13:46 | 31.92117 | -84.04595 | 43133 ft | 428 kts | 340° |
| 2026-04-17 13:47 | 31.97976 | -84.05905 | 43136 ft | 429 kts | 340° |
| 2026-04-17 13:47 | 32.03845 | -84.07219 | 43135 ft | 430 kts | 340° |
| 2026-04-17 13:48 | 32.09725 | -84.08537 | 43135 ft | 430 kts | 340° |
| 2026-04-17 13:48 | 32.15612 | -84.09858 | 43136 ft | 431 kts | 340° |
| 2026-04-17 13:49 | 32.21507 | -84.11183 | 43162 ft | 431 kts | 340° |
| 2026-04-17 13:49 | 32.27384 | -84.12504 | 43132 ft | 428 kts | 340° |
| 2026-04-17 13:50 | 32.33202 | -84.13816 | 43127 ft | 425 kts | 340° |
| 2026-04-17 13:50 | 32.39028 | -84.15134 | 43126 ft | 428 kts | 340° |
| 2026-04-17 13:51 | 32.44853 | -84.16448 | 43133 ft | 431 kts | 340° |
| 2026-04-17 13:51 | 32.50738 | -84.17779 | 43122 ft | 430 kts | 340° |
| 2026-04-17 13:52 | 32.56592 | -84.19104 | 43125 ft | 426 kts | 340° |
| 2026-04-17 13:52 | 32.62402 | -84.20424 | 43120 ft | 425 kts | 340° |
| 2026-04-17 13:53 | 32.68234 | -84.21750 | 43134 ft | 428 kts | 340° |
| 2026-04-17 13:53 | 32.74096 | -84.23082 | 43144 ft | 430 kts | 340° |
| 2026-04-17 13:54 | 32.82915 | -84.25089 | 43163 ft | 428 kts | 340° |
| 2026-04-17 13:55 | 32.91640 | -84.27085 | 43160 ft | 426 kts | 340° |
| 2026-04-17 13:56 | 33.03354 | -84.29765 | 43190 ft | 431 kts | 340° |
| 2026-04-17 13:56 | 33.09237 | -84.31110 | 43145 ft | 428 kts | 340° |
| 2026-04-17 13:57 | 33.15060 | -84.32449 | 43145 ft | 425 kts | 340° |
| 2026-04-17 13:58 | 33.23803 | -84.34462 | 43171 ft | 429 kts | 340° |
| 2026-04-17 13:58 | 33.32628 | -84.36494 | 43194 ft | 430 kts | 340° |
| 2026-04-17 13:59 | 33.41390 | -84.38518 | 43133 ft | 426 kts | 340° |
| 2026-04-17 14:00 | 33.47158 | -84.39852 | 43134 ft | 425 kts | 340° |
| 2026-04-17 14:00 | 33.52986 | -84.41204 | 43145 ft | 428 kts | 340° |
| 2026-04-17 14:01 | 33.58854 | -84.42565 | 43159 ft | 430 kts | 340° |
| 2026-04-17 14:01 | 33.64701 | -84.43914 | 43158 ft | 425 kts | 340° |
| 2026-04-17 14:02 | 33.70519 | -84.45171 | 43162 ft | 426 kts | 340° |
| 2026-04-17 14:02 | 33.76360 | -84.46465 | 43160 ft | 428 kts | 340° |
| 2026-04-17 14:03 | 33.82243 | -84.47757 | 43162 ft | 431 kts | 340° |
| 2026-04-17 14:03 | 33.88116 | -84.49049 | 43150 ft | 426 kts | 340° |
| 2026-04-17 14:04 | 33.93919 | -84.50334 | 43166 ft | 423 kts | 340° |
| 2026-04-17 14:04 | 33.99743 | -84.51624 | 43174 ft | 428 kts | 340° |
| 2026-04-17 14:05 | 34.05703 | -84.52621 | 43184 ft | 436 kts | 346° |
| 2026-04-17 14:05 | 34.11684 | -84.53245 | 43165 ft | 434 kts | 345° |
| 2026-04-17 14:06 | 34.17685 | -84.53876 | 43144 ft | 431 kts | 346° |
| 2026-04-17 14:06 | 34.23644 | -84.54496 | 43157 ft | 429 kts | 345° |
| 2026-04-17 14:07 | 34.29617 | -84.55129 | 43172 ft | 433 kts | 346° |
| 2026-04-17 14:07 | 34.35644 | -84.55758 | 43207 ft | 436 kts | 346° |
| 2026-04-17 14:08 | 34.41676 | -84.56391 | 43161 ft | 432 kts | 346° |
| 2026-04-17 14:08 | 34.47635 | -84.57020 | 43121 ft | 429 kts | 346° |
| 2026-04-17 14:09 | 34.53606 | -84.57653 | 43128 ft | 433 kts | 346° |
| 2026-04-17 14:09 | 34.59630 | -84.58288 | 43142 ft | 436 kts | 346° |
| 2026-04-17 14:10 | 34.65664 | -84.58924 | 43149 ft | 434 kts | 346° |
| 2026-04-17 14:10 | 34.71644 | -84.59557 | 43144 ft | 429 kts | 346° |
| 2026-04-17 14:11 | 34.77601 | -84.60193 | 43140 ft | 431 kts | 346° |
| 2026-04-17 14:11 | 34.83602 | -84.60831 | 43148 ft | 434 kts | 346° |
| 2026-04-17 14:12 | 34.89642 | -84.61473 | 43138 ft | 436 kts | 346° |
| 2026-04-17 14:12 | 34.95664 | -84.62110 | 43136 ft | 433 kts | 346° |
| 2026-04-17 14:13 | 35.04627 | -84.63073 | 43121 ft | 430 kts | 346° |
| 2026-04-17 14:13 | 35.10609 | -84.63709 | 43121 ft | 433 kts | 346° |
| 2026-04-17 14:14 | 35.16620 | -84.64356 | 43146 ft | 435 kts | 346° |
| 2026-04-17 14:14 | 35.22665 | -84.65002 | 43152 ft | 437 kts | 346° |
| 2026-04-17 14:15 | 35.28660 | -84.65645 | 43171 ft | 433 kts | 346° |
| 2026-04-17 14:15 | 35.34645 | -84.66290 | 43172 ft | 431 kts | 346° |
| 2026-04-17 14:16 | 35.40618 | -84.66938 | 43171 ft | 432 kts | 346° |
| 2026-04-17 14:16 | 35.46639 | -84.67585 | 43180 ft | 436 kts | 346° |
| 2026-04-17 14:17 | 35.52688 | -84.68237 | 43169 ft | 436 kts | 346° |
| 2026-04-17 14:17 | 35.58711 | -84.68889 | 43158 ft | 432 kts | 346° |
| 2026-04-17 14:18 | 35.64687 | -84.69537 | 43166 ft | 431 kts | 346° |
| 2026-04-17 14:18 | 35.70684 | -84.70191 | 43147 ft | 434 kts | 346° |
| 2026-04-17 14:19 | 35.76734 | -84.70847 | 43143 ft | 437 kts | 346° |
| 2026-04-17 14:19 | 35.82783 | -84.71504 | 43141 ft | 435 kts | 346° |
| 2026-04-17 14:20 | 35.88801 | -84.72164 | 43175 ft | 433 kts | 346° |
| 2026-04-17 14:20 | 35.94788 | -84.72814 | 43171 ft | 431 kts | 346° |
| 2026-04-17 14:21 | 35.99754 | -84.73360 | 43169 ft | 432 kts | 346° |
| 2026-04-17 14:21 | 36.05778 | -84.74021 | 43167 ft | 436 kts | 346° |
| 2026-04-17 14:22 | 36.11834 | -84.74682 | 43162 ft | 436 kts | 346° |
| 2026-04-17 14:22 | 36.17872 | -84.75346 | 43155 ft | 436 kts | 346° |
| 2026-04-17 14:23 | 36.23909 | -84.76011 | 43153 ft | 435 kts | 346° |
| 2026-04-17 14:23 | 36.29924 | -84.76674 | 43147 ft | 434 kts | 346° |
| 2026-04-17 14:24 | 36.35939 | -84.77338 | 43147 ft | 433 kts | 346° |
| 2026-04-17 14:24 | 36.41954 | -84.77961 | 43146 ft | 438 kts | 349° |
| 2026-04-17 14:25 | 36.48110 | -84.77673 | 43155 ft | 444 kts | 354° |
| 2026-04-17 14:25 | 36.54285 | -84.77323 | 43157 ft | 445 kts | 354° |
| 2026-04-17 14:26 | 36.60477 | -84.76942 | 43162 ft | 446 kts | 354° |
| 2026-04-17 14:26 | 36.66687 | -84.76574 | 43168 ft | 448 kts | 354° |
| 2026-04-17 14:27 | 36.72914 | -84.76196 | 42799 ft | 450 kts | 354° |
| 2026-04-17 14:27 | 36.76035 | -84.76009 | 42319 ft | 447 kts | 354° |
| 2026-04-17 14:27 | 36.79119 | -84.75819 | 41847 ft | 441 kts | 354° |
| 2026-04-17 14:28 | 36.82175 | -84.75634 | 41386 ft | 437 kts | 354° |
| 2026-04-17 14:28 | 36.85194 | -84.75454 | 40936 ft | 434 kts | 354° |
| 2026-04-17 14:28 | 36.88202 | -84.75384 | 40509 ft | 430 kts | 349° |
| 2026-04-17 14:28 | 36.91162 | -84.75766 | 40082 ft | 428 kts | 343° |
| 2026-04-17 14:29 | 36.94065 | -84.76585 | 39671 ft | 427 kts | 338° |
| 2026-04-17 14:29 | 36.96910 | -84.77537 | 39267 ft | 429 kts | 338° |
| 2026-04-17 14:29 | 36.99831 | -84.78489 | 38833 ft | 429 kts | 339° |
| 2026-04-17 14:29 | 37.02716 | -84.79429 | 38342 ft | 428 kts | 338° |
| 2026-04-17 14:30 | 37.05592 | -84.80382 | 37845 ft | 427 kts | 338° |
| 2026-04-17 14:30 | 37.08466 | -84.81338 | 37362 ft | 428 kts | 339° |
| 2026-04-17 14:30 | 37.11360 | -84.82295 | 36894 ft | 432 kts | 339° |
| 2026-04-17 14:30 | 37.14275 | -84.83256 | 36461 ft | 436 kts | 339° |
| 2026-04-17 14:31 | 37.17221 | -84.84230 | 36015 ft | 439 kts | 339° |
| 2026-04-17 14:31 | 37.20174 | -84.85208 | 35571 ft | 439 kts | 339° |
| 2026-04-17 14:31 | 37.23128 | -84.86187 | 35132 ft | 440 kts | 339° |
| 2026-04-17 14:31 | 37.26085 | -84.87168 | 34702 ft | 440 kts | 340° |
| 2026-04-17 14:32 | 37.29046 | -84.88151 | 34282 ft | 440 kts | 340° |
| 2026-04-17 14:32 | 37.32012 | -84.89137 | 33825 ft | 442 kts | 340° |
| 2026-04-17 14:32 | 37.34995 | -84.90130 | 33351 ft | 444 kts | 340° |
| 2026-04-17 14:32 | 37.37986 | -84.91126 | 32911 ft | 446 kts | 340° |
| 2026-04-17 14:33 | 37.40976 | -84.92159 | 32452 ft | 445 kts | 338° |
| 2026-04-17 14:33 | 37.43840 | -84.93590 | 32001 ft | 441 kts | 331° |
| 2026-04-17 14:33 | 37.46520 | -84.95447 | 31539 ft | 441 kts | 324° |
| 2026-04-17 14:33 | 37.49005 | -84.97730 | 31024 ft | 443 kts | 318° |
| 2026-04-17 14:34 | 37.51356 | -85.00266 | 30532 ft | 447 kts | 317° |
| 2026-04-17 14:34 | 37.53726 | -85.02806 | 29999 ft | 448 kts | 317° |
| 2026-04-17 14:34 | 37.56205 | -85.05187 | 29416 ft | 451 kts | 324° |
| 2026-04-17 14:34 | 37.58948 | -85.07167 | 28849 ft | 458 kts | 331° |
| 2026-04-17 14:35 | 37.61879 | -85.08690 | 28311 ft | 465 kts | 338° |
| 2026-04-17 14:35 | 37.64975 | -85.09882 | 27766 ft | 466 kts | 340° |
| 2026-04-17 14:35 | 37.68071 | -85.11067 | 27231 ft | 465 kts | 340° |
| 2026-04-17 14:35 | 37.71171 | -85.12276 | 26700 ft | 466 kts | 340° |
| 2026-04-17 14:36 | 37.74274 | -85.13454 | 26188 ft | 465 kts | 341° |
| 2026-04-17 14:36 | 37.77382 | -85.14545 | 25680 ft | 463 kts | 341° |
| 2026-04-17 14:36 | 37.80445 | -85.15646 | 25184 ft | 450 kts | 341° |
| 2026-04-17 14:36 | 37.83383 | -85.16711 | 24680 ft | 426 kts | 341° |
| 2026-04-17 14:37 | 37.86162 | -85.17708 | 24205 ft | 405 kts | 341° |
| 2026-04-17 14:37 | 37.88815 | -85.18658 | 23702 ft | 388 kts | 341° |
| 2026-04-17 14:37 | 37.91366 | -85.19578 | 23113 ft | 374 kts | 341° |
| 2026-04-17 14:37 | 37.93825 | -85.20467 | 22523 ft | 362 kts | 341° |
| 2026-04-17 14:38 | 37.96185 | -85.21418 | 21939 ft | 350 kts | 335° |
| 2026-04-17 14:38 | 37.98355 | -85.22686 | 21383 ft | 340 kts | 332° |
| 2026-04-17 14:38 | 38.00485 | -85.23929 | 20820 ft | 332 kts | 333° |
| 2026-04-17 14:38 | 38.02567 | -85.25128 | 20289 ft | 326 kts | 333° |
| 2026-04-17 14:39 | 38.04608 | -85.26316 | 19759 ft | 320 kts | 333° |
| 2026-04-17 14:39 | 38.06618 | -85.27494 | 19231 ft | 313 kts | 333° |
| 2026-04-17 14:39 | 38.08549 | -85.28623 | 18709 ft | 300 kts | 333° |
| 2026-04-17 14:39 | 38.10413 | -85.29711 | 18177 ft | 290 kts | 333° |
| 2026-04-17 14:40 | 38.12219 | -85.30766 | 17590 ft | 282 kts | 333° |
| 2026-04-17 14:40 | 38.13975 | -85.31795 | 17017 ft | 275 kts | 333° |
| 2026-04-17 14:40 | 38.15660 | -85.32877 | 16456 ft | 268 kts | 330° |
| 2026-04-17 14:40 | 38.17275 | -85.34024 | 15909 ft | 264 kts | 328° |
| 2026-04-17 14:41 | 38.18851 | -85.35184 | 15372 ft | 261 kts | 328° |
| 2026-04-17 14:41 | 38.20423 | -85.36309 | 14843 ft | 258 kts | 329° |
| 2026-04-17 14:41 | 38.21987 | -85.37415 | 14326 ft | 256 kts | 329° |
| 2026-04-17 14:41 | 38.23538 | -85.38517 | 13813 ft | 255 kts | 329° |
| 2026-04-17 14:42 | 38.25069 | -85.39610 | 13292 ft | 244 kts | 329° |
| 2026-04-17 14:42 | 38.26502 | -85.40630 | 12744 ft | 230 kts | 328° |
| 2026-04-17 14:42 | 38.27868 | -85.41605 | 12182 ft | 221 kts | 328° |
| 2026-04-17 14:42 | 38.29190 | -85.42545 | 11631 ft | 215 kts | 329° |
| 2026-04-17 14:43 | 38.30562 | -85.43263 | 11089 ft | 212 kts | 337° |
| 2026-04-17 14:43 | 38.31953 | -85.43843 | 10560 ft | 208 kts | 338° |
| 2026-04-17 14:43 | 38.33319 | -85.44395 | 10047 ft | 205 kts | 339° |
| 2026-04-17 14:43 | 38.34674 | -85.44935 | 9476 ft | 202 kts | 339° |
| 2026-04-17 14:44 | 38.35938 | -85.45650 | 8909 ft | 197 kts | 322° |
| 2026-04-17 14:44 | 38.36881 | -85.46867 | 8407 ft | 190 kts | 307° |
| 2026-04-17 14:44 | 38.37703 | -85.48162 | 7980 ft | 186 kts | 307° |
| 2026-04-17 14:44 | 38.38505 | -85.49432 | 7560 ft | 183 kts | 307° |
| 2026-04-17 14:45 | 38.39293 | -85.50683 | 7141 ft | 179 kts | 307° |
| 2026-04-17 14:45 | 38.40072 | -85.51909 | 6730 ft | 177 kts | 307° |
| 2026-04-17 14:45 | 38.40843 | -85.53123 | 6318 ft | 176 kts | 307° |
| 2026-04-17 14:45 | 38.41606 | -85.54333 | 5885 ft | 175 kts | 307° |
| 2026-04-17 14:46 | 38.42369 | -85.55551 | 5474 ft | 176 kts | 307° |
| 2026-04-17 14:46 | 38.43108 | -85.56780 | 5052 ft | 177 kts | 301° |
| 2026-04-17 14:46 | 38.43488 | -85.58259 | 4618 ft | 177 kts | 280° |
| 2026-04-17 14:46 | 38.43702 | -85.59796 | 4200 ft | 175 kts | 279° |
| 2026-04-17 14:47 | 38.43924 | -85.61327 | 3785 ft | 176 kts | 279° |
| 2026-04-17 14:47 | 38.44156 | -85.62866 | 3366 ft | 177 kts | 279° |
| 2026-04-17 14:47 | 38.44394 | -85.64403 | 2879 ft | 174 kts | 279° |
| 2026-04-17 14:47 | 38.44632 | -85.65876 | 2370 ft | 167 kts | 280° |
| 2026-04-17 14:48 | 38.44851 | -85.67216 | 1962 ft | 143 kts | 279° |
| 2026-04-17 14:48 | 38.45004 | -85.68365 | 1682 ft | 123 kts | 275° |
| 2026-04-17 14:48 | 38.45087 | -85.69456 | 1557 ft | 123 kts | 271° |
| 2026-04-17 14:48 | 38.45100 | -85.70580 | 1518 ft | 127 kts | 267° |
| 2026-04-17 14:49 | 38.45063 | -85.71724 | 1517 ft | 131 kts | 264° |
| 2026-04-17 14:49 | 38.44923 | -85.72862 | 1523 ft | 130 kts | 247° |
| 2026-04-17 14:49 | 38.44394 | -85.73791 | 1487 ft | 127 kts | 219° |
| 2026-04-17 14:49 | 38.43550 | -85.74033 | 1303 ft | 133 kts | 171° |
| 2026-04-17 14:50 | 38.42648 | -85.73824 | 1200 ft | 132 kts | 173° |
| 2026-04-17 14:50 | 38.41776 | -85.73793 | 1079 ft | 122 kts | 184° |
| 2026-04-17 14:50 | 38.40896 | -85.73821 | 1021 ft | 131 kts | 180° |
| 2026-04-17 14:50 | 38.39991 | -85.73800 | 938 ft | 130 kts | 178° |
| 2026-04-17 14:51 | 38.39078 | -85.73801 | 817 ft | 132 kts | 181° |
| 2026-04-17 14:51 | 38.38173 | -85.73803 | 676 ft | 129 kts | 180° |
| 2026-04-17 14:51 | 38.37283 | -85.73789 | 528 ft | 125 kts | 180° |
| 2026-04-17 14:51 | 38.36550 | -85.73781 | 465 ft | 59 kts | 181° |
| 2026-04-17 14:52 | 38.36336 | -85.73786 | 464 ft | 30 kts | 180° |
| 2026-04-17 14:52 | 38.36159 | -85.73793 | 461 ft | 16 kts | 200° |
| 2026-04-17 14:52 | 38.36147 | -85.73917 | 463 ft | 12 kts | 309° |
| 2026-04-17 14:52 | 38.36232 | -85.73931 | 465 ft | 13 kts | 1° |
| 2026-04-17 14:53 | 38.36333 | -85.73928 | 466 ft | 16 kts | 0° |
| 2026-04-17 14:53 | 38.36456 | -85.73938 | 466 ft | 19 kts | 356° |
| 2026-04-17 14:53 | 38.36585 | -85.73937 | 467 ft | 13 kts | 332° |
| 2026-04-17 14:53 | 38.36657 | -85.74027 | 464 ft | 16 kts | 316° |
| 2026-04-17 14:54 | 38.36711 | -85.74136 | 467 ft | 13 kts | 243° |
| 2026-04-17 14:54 | 38.36662 | -85.74222 | 470 ft | 10 kts | 258° |
| 2026-04-17 14:54 | 38.36720 | -85.74310 | 474 ft | 19 kts | 318° |
| 2026-04-17 14:54 | 38.36740 | -85.74334 | 474 ft | 0 kts | 312° |